sensor_id;sensor_type;location;lat;lon;timestamp;P1;durP1;ratioP1;P2;durP2;ratioP2
60060;SDS011;45933;51.336;12.612;2023-07-31T00:00:30;6.22;;;1.95;;
60060;SDS011;45933;51.336;12.612;2023-07-31T00:02:55;4.55;;;1.80;;
60060;SDS011;45933;51.336;12.612;2023-07-31T00:05:20;5.35;;;1.98;;
60060;SDS011;45933;51.336;12.612;2023-07-31T00:07:46;7.13;;;1.77;;
60060;SDS011;45933;51.336;12.612;2023-07-31T00:10:12;4.38;;;1.88;;
60060;SDS011;45933;51.336;12.612;2023-07-31T00:12:38;4.97;;;1.95;;
60060;SDS011;45933;51.336;12.612;2023-07-31T00:15:05;5.15;;;1.58;;
60060;SDS011;45933;51.336;12.612;2023-07-31T00:17:31;4.43;;;1.75;;
60060;SDS011;45933;51.336;12.612;2023-07-31T00:19:57;4.80;;;1.90;;
60060;SDS011;45933;51.336;12.612;2023-07-31T00:22:22;6.00;;;1.90;;
60060;SDS011;45933;51.336;12.612;2023-07-31T00:24:47;5.32;;;1.70;;
60060;SDS011;45933;51.336;12.612;2023-07-31T00:27:13;6.13;;;2.13;;
60060;SDS011;45933;51.336;12.612;2023-07-31T00:29:38;4.32;;;1.70;;
60060;SDS011;45933;51.336;12.612;2023-07-31T00:32:03;2.92;;;1.52;;
60060;SDS011;45933;51.336;12.612;2023-07-31T00:34:29;7.85;;;1.92;;
60060;SDS011;45933;51.336;12.612;2023-07-31T00:36:54;10.85;;;2.25;;
60060;SDS011;45933;51.336;12.612;2023-07-31T00:39:20;4.13;;;1.65;;
60060;SDS011;45933;51.336;12.612;2023-07-31T00:41:45;5.50;;;1.98;;
60060;SDS011;45933;51.336;12.612;2023-07-31T00:44:10;4.68;;;2.10;;
60060;SDS011;45933;51.336;12.612;2023-07-31T00:46:36;5.97;;;1.58;;
60060;SDS011;45933;51.336;12.612;2023-07-31T00:49:01;4.22;;;1.73;;
60060;SDS011;45933;51.336;12.612;2023-07-31T00:51:27;4.93;;;2.00;;
60060;SDS011;45933;51.336;12.612;2023-07-31T00:53:52;3.63;;;1.70;;
60060;SDS011;45933;51.336;12.612;2023-07-31T00:56:19;3.92;;;2.03;;
60060;SDS011;45933;51.336;12.612;2023-07-31T00:58:44;4.63;;;1.77;;
60060;SDS011;45933;51.336;12.612;2023-07-31T01:01:10;5.00;;;1.60;;
60060;SDS011;45933;51.336;12.612;2023-07-31T01:03:35;2.97;;;1.60;;
60060;SDS011;45933;51.336;12.612;2023-07-31T01:11:14;2.53;;;1.58;;
60060;SDS011;45933;51.336;12.612;2023-07-31T01:13:46;3.92;;;1.58;;
60060;SDS011;45933;51.336;12.612;2023-07-31T01:16:12;3.58;;;1.80;;
60060;SDS011;45933;51.336;12.612;2023-07-31T01:18:37;3.10;;;1.35;;
60060;SDS011;45933;51.336;12.612;2023-07-31T01:21:10;7.20;;;1.73;;
60060;SDS011;45933;51.336;12.612;2023-07-31T01:24:00;4.30;;;1.60;;
60060;SDS011;45933;51.336;12.612;2023-07-31T01:26:28;4.90;;;2.10;;
60060;SDS011;45933;51.336;12.612;2023-07-31T01:29:17;5.05;;;1.67;;
60060;SDS011;45933;51.336;12.612;2023-07-31T01:31:48;3.95;;;1.77;;
60060;SDS011;45933;51.336;12.612;2023-07-31T01:34:15;5.32;;;1.95;;
60060;SDS011;45933;51.336;12.612;2023-07-31T01:36:43;3.33;;;1.70;;
60060;SDS011;45933;51.336;12.612;2023-07-31T01:39:08;4.32;;;1.80;;
60060;SDS011;45933;51.336;12.612;2023-07-31T01:41:34;4.68;;;1.88;;
60060;SDS011;45933;51.336;12.612;2023-07-31T01:43:59;3.15;;;1.48;;
60060;SDS011;45933;51.336;12.612;2023-07-31T01:46:25;4.22;;;1.90;;
60060;SDS011;45933;51.336;12.612;2023-07-31T01:48:50;3.90;;;1.95;;
60060;SDS011;45933;51.336;12.612;2023-07-31T01:51:16;11.75;;;2.35;;
60060;SDS011;45933;51.336;12.612;2023-07-31T01:53:41;4.00;;;1.80;;
60060;SDS011;45933;51.336;12.612;2023-07-31T01:56:06;2.25;;;1.55;;
60060;SDS011;45933;51.336;12.612;2023-07-31T01:58:31;6.82;;;2.30;;
60060;SDS011;45933;51.336;12.612;2023-07-31T02:00:57;4.25;;;1.65;;
60060;SDS011;45933;51.336;12.612;2023-07-31T02:03:22;3.47;;;1.90;;
60060;SDS011;45933;51.336;12.612;2023-07-31T02:05:48;7.28;;;2.45;;
60060;SDS011;45933;51.336;12.612;2023-07-31T02:08:14;4.15;;;1.73;;
60060;SDS011;45933;51.336;12.612;2023-07-31T02:10:40;4.40;;;2.03;;
60060;SDS011;45933;51.336;12.612;2023-07-31T02:13:05;2.67;;;1.45;;
60060;SDS011;45933;51.336;12.612;2023-07-31T02:15:31;4.45;;;1.80;;
60060;SDS011;45933;51.336;12.612;2023-07-31T02:17:56;4.28;;;2.13;;
60060;SDS011;45933;51.336;12.612;2023-07-31T02:20:22;4.18;;;1.85;;
60060;SDS011;45933;51.336;12.612;2023-07-31T02:22:47;5.93;;;1.77;;
60060;SDS011;45933;51.336;12.612;2023-07-31T02:25:13;3.47;;;1.67;;
60060;SDS011;45933;51.336;12.612;2023-07-31T02:27:38;4.72;;;1.60;;
60060;SDS011;45933;51.336;12.612;2023-07-31T02:30:03;4.20;;;2.00;;
60060;SDS011;45933;51.336;12.612;2023-07-31T02:32:29;3.35;;;1.70;;
60060;SDS011;45933;51.336;12.612;2023-07-31T02:34:54;6.65;;;2.40;;
60060;SDS011;45933;51.336;12.612;2023-07-31T02:37:20;3.67;;;1.90;;
60060;SDS011;45933;51.336;12.612;2023-07-31T02:39:45;5.38;;;1.80;;
60060;SDS011;45933;51.336;12.612;2023-07-31T02:42:10;4.85;;;1.63;;
60060;SDS011;45933;51.336;12.612;2023-07-31T02:44:36;5.05;;;1.98;;
60060;SDS011;45933;51.336;12.612;2023-07-31T02:47:01;4.60;;;1.90;;
60060;SDS011;45933;51.336;12.612;2023-07-31T02:49:28;4.93;;;2.15;;
60060;SDS011;45933;51.336;12.612;2023-07-31T02:51:53;4.60;;;1.80;;
60060;SDS011;45933;51.336;12.612;2023-07-31T02:54:18;5.40;;;1.70;;
60060;SDS011;45933;51.336;12.612;2023-07-31T02:56:45;2.97;;;1.70;;
60060;SDS011;45933;51.336;12.612;2023-07-31T02:59:10;6.95;;;2.25;;
60060;SDS011;45933;51.336;12.612;2023-07-31T03:01:36;4.70;;;1.73;;
60060;SDS011;45933;51.336;12.612;2023-07-31T03:04:01;7.32;;;1.73;;
60060;SDS011;45933;51.336;12.612;2023-07-31T03:06:26;5.40;;;1.80;;
60060;SDS011;45933;51.336;12.612;2023-07-31T03:08:52;5.82;;;1.70;;
60060;SDS011;45933;51.336;12.612;2023-07-31T03:11:18;4.93;;;2.30;;
60060;SDS011;45933;51.336;12.612;2023-07-31T03:13:43;3.03;;;2.03;;
60060;SDS011;45933;51.336;12.612;2023-07-31T03:16:08;5.75;;;1.90;;
60060;SDS011;45933;51.336;12.612;2023-07-31T03:18:34;3.28;;;1.80;;
60060;SDS011;45933;51.336;12.612;2023-07-31T03:20:59;5.68;;;1.58;;
60060;SDS011;45933;51.336;12.612;2023-07-31T03:23:24;4.22;;;2.05;;
60060;SDS011;45933;51.336;12.612;2023-07-31T03:25:57;3.67;;;1.83;;
60060;SDS011;45933;51.336;12.612;2023-07-31T03:28:24;4.82;;;1.85;;
60060;SDS011;45933;51.336;12.612;2023-07-31T03:30:49;4.45;;;1.83;;
60060;SDS011;45933;51.336;12.612;2023-07-31T03:33:14;5.65;;;1.83;;
60060;SDS011;45933;51.336;12.612;2023-07-31T03:35:40;5.13;;;1.80;;
60060;SDS011;45933;51.336;12.612;2023-07-31T03:38:05;6.18;;;2.00;;
60060;SDS011;45933;51.336;12.612;2023-07-31T03:40:30;4.10;;;1.42;;
60060;SDS011;45933;51.336;12.612;2023-07-31T03:42:55;5.93;;;2.25;;
60060;SDS011;45933;51.336;12.612;2023-07-31T03:45:21;3.83;;;1.70;;
60060;SDS011;45933;51.336;12.612;2023-07-31T03:47:46;4.32;;;1.90;;
60060;SDS011;45933;51.336;12.612;2023-07-31T03:50:11;6.13;;;2.05;;
60060;SDS011;45933;51.336;12.612;2023-07-31T03:52:37;4.72;;;2.15;;
60060;SDS011;45933;51.336;12.612;2023-07-31T03:55:02;5.75;;;2.10;;
60060;SDS011;45933;51.336;12.612;2023-07-31T03:57:28;4.93;;;2.10;;
60060;SDS011;45933;51.336;12.612;2023-07-31T03:59:53;7.53;;;2.28;;
60060;SDS011;45933;51.336;12.612;2023-07-31T04:02:18;4.50;;;1.83;;
60060;SDS011;45933;51.336;12.612;2023-07-31T04:04:44;5.40;;;2.10;;
60060;SDS011;45933;51.336;12.612;2023-07-31T04:07:09;8.43;;;2.88;;
60060;SDS011;45933;51.336;12.612;2023-07-31T04:09:34;4.50;;;2.00;;
60060;SDS011;45933;51.336;12.612;2023-07-31T04:11:59;4.13;;;1.83;;
60060;SDS011;45933;51.336;12.612;2023-07-31T04:14:25;7.63;;;2.13;;
60060;SDS011;45933;51.336;12.612;2023-07-31T04:16:50;4.85;;;2.05;;
60060;SDS011;45933;51.336;12.612;2023-07-31T04:19:15;3.97;;;1.80;;
60060;SDS011;45933;51.336;12.612;2023-07-31T04:21:41;4.55;;;2.50;;
60060;SDS011;45933;51.336;12.612;2023-07-31T04:24:07;5.65;;;2.10;;
60060;SDS011;45933;51.336;12.612;2023-07-31T04:26:32;4.30;;;2.13;;
60060;SDS011;45933;51.336;12.612;2023-07-31T04:28:57;4.97;;;2.03;;
60060;SDS011;45933;51.336;12.612;2023-07-31T04:31:23;4.60;;;2.10;;
60060;SDS011;45933;51.336;12.612;2023-07-31T04:33:48;5.93;;;2.08;;
60060;SDS011;45933;51.336;12.612;2023-07-31T04:36:13;5.78;;;2.60;;
60060;SDS011;45933;51.336;12.612;2023-07-31T04:38:39;5.28;;;2.10;;
60060;SDS011;45933;51.336;12.612;2023-07-31T04:41:06;4.75;;;2.15;;
60060;SDS011;45933;51.336;12.612;2023-07-31T04:43:31;2.80;;;1.90;;
60060;SDS011;45933;51.336;12.612;2023-07-31T04:45:56;3.63;;;2.20;;
60060;SDS011;45933;51.336;12.612;2023-07-31T04:48:22;4.47;;;2.00;;
60060;SDS011;45933;51.336;12.612;2023-07-31T04:50:48;4.00;;;2.28;;
60060;SDS011;45933;51.336;12.612;2023-07-31T04:53:14;4.10;;;2.05;;
60060;SDS011;45933;51.336;12.612;2023-07-31T04:55:39;7.75;;;2.22;;
60060;SDS011;45933;51.336;12.612;2023-07-31T04:58:04;3.75;;;2.05;;
60060;SDS011;45933;51.336;12.612;2023-07-31T05:00:30;5.90;;;2.10;;
60060;SDS011;45933;51.336;12.612;2023-07-31T05:02:55;6.80;;;2.97;;
60060;SDS011;45933;51.336;12.612;2023-07-31T05:05:20;4.38;;;2.28;;
60060;SDS011;45933;51.336;12.612;2023-07-31T05:07:46;7.90;;;2.33;;
60060;SDS011;45933;51.336;12.612;2023-07-31T05:10:11;4.18;;;2.20;;
60060;SDS011;45933;51.336;12.612;2023-07-31T05:12:36;7.57;;;2.25;;
60060;SDS011;45933;51.336;12.612;2023-07-31T05:15:02;4.78;;;2.33;;
60060;SDS011;45933;51.336;12.612;2023-07-31T05:17:27;5.10;;;2.00;;
60060;SDS011;45933;51.336;12.612;2023-07-31T05:19:52;6.53;;;2.50;;
60060;SDS011;45933;51.336;12.612;2023-07-31T05:22:18;4.50;;;2.25;;
60060;SDS011;45933;51.336;12.612;2023-07-31T05:24:43;3.65;;;2.15;;
60060;SDS011;45933;51.336;12.612;2023-07-31T05:27:08;4.63;;;2.03;;
60060;SDS011;45933;51.336;12.612;2023-07-31T05:29:34;4.38;;;2.28;;
60060;SDS011;45933;51.336;12.612;2023-07-31T05:32:00;5.55;;;2.90;;
60060;SDS011;45933;51.336;12.612;2023-07-31T05:34:25;8.10;;;2.65;;
60060;SDS011;45933;51.336;12.612;2023-07-31T05:36:50;5.25;;;2.25;;
60060;SDS011;45933;51.336;12.612;2023-07-31T05:39:16;5.95;;;2.33;;
60060;SDS011;45933;51.336;12.612;2023-07-31T05:41:41;4.10;;;2.53;;
60060;SDS011;45933;51.336;12.612;2023-07-31T05:44:06;5.95;;;2.05;;
60060;SDS011;45933;51.336;12.612;2023-07-31T05:46:32;6.20;;;2.35;;
60060;SDS011;45933;51.336;12.612;2023-07-31T05:48:58;3.53;;;2.13;;
60060;SDS011;45933;51.336;12.612;2023-07-31T05:51:25;5.35;;;2.17;;
60060;SDS011;45933;51.336;12.612;2023-07-31T05:53:51;4.95;;;2.45;;
60060;SDS011;45933;51.336;12.612;2023-07-31T05:56:16;4.80;;;2.35;;
60060;SDS011;45933;51.336;12.612;2023-07-31T05:58:42;5.60;;;2.47;;
60060;SDS011;45933;51.336;12.612;2023-07-31T06:01:07;5.28;;;2.30;;
60060;SDS011;45933;51.336;12.612;2023-07-31T06:03:32;4.55;;;2.15;;
60060;SDS011;45933;51.336;12.612;2023-07-31T06:05:57;4.00;;;2.40;;
60060;SDS011;45933;51.336;12.612;2023-07-31T06:08:23;3.22;;;1.98;;
60060;SDS011;45933;51.336;12.612;2023-07-31T06:10:48;6.10;;;2.25;;
60060;SDS011;45933;51.336;12.612;2023-07-31T06:13:13;5.03;;;2.15;;
60060;SDS011;45933;51.336;12.612;2023-07-31T06:15:38;4.50;;;2.25;;
60060;SDS011;45933;51.336;12.612;2023-07-31T06:18:04;4.57;;;2.40;;
60060;SDS011;45933;51.336;12.612;2023-07-31T06:20:32;5.78;;;2.60;;
60060;SDS011;45933;51.336;12.612;2023-07-31T06:22:58;4.60;;;2.17;;
60060;SDS011;45933;51.336;12.612;2023-07-31T06:25:24;6.10;;;2.60;;
60060;SDS011;45933;51.336;12.612;2023-07-31T06:27:49;4.90;;;2.22;;
60060;SDS011;45933;51.336;12.612;2023-07-31T06:30:14;6.13;;;2.42;;
60060;SDS011;45933;51.336;12.612;2023-07-31T06:32:40;3.45;;;2.20;;
60060;SDS011;45933;51.336;12.612;2023-07-31T06:35:05;7.35;;;2.63;;
60060;SDS011;45933;51.336;12.612;2023-07-31T06:37:31;5.45;;;2.25;;
60060;SDS011;45933;51.336;12.612;2023-07-31T06:39:57;5.93;;;2.10;;
60060;SDS011;45933;51.336;12.612;2023-07-31T06:42:22;5.25;;;2.28;;
60060;SDS011;45933;51.336;12.612;2023-07-31T06:44:47;3.58;;;2.20;;
60060;SDS011;45933;51.336;12.612;2023-07-31T06:47:13;9.50;;;2.40;;
60060;SDS011;45933;51.336;12.612;2023-07-31T06:49:38;3.97;;;2.20;;
60060;SDS011;45933;51.336;12.612;2023-07-31T06:52:03;5.10;;;2.60;;
60060;SDS011;45933;51.336;12.612;2023-07-31T06:54:29;4.25;;;2.95;;
60060;SDS011;45933;51.336;12.612;2023-07-31T06:56:54;5.28;;;2.42;;
60060;SDS011;45933;51.336;12.612;2023-07-31T06:59:19;6.47;;;3.13;;
60060;SDS011;45933;51.336;12.612;2023-07-31T07:01:45;6.18;;;2.38;;
60060;SDS011;45933;51.336;12.612;2023-07-31T07:04:10;3.45;;;2.22;;
60060;SDS011;45933;51.336;12.612;2023-07-31T07:06:35;4.10;;;2.28;;
60060;SDS011;45933;51.336;12.612;2023-07-31T07:09:01;5.60;;;2.63;;
60060;SDS011;45933;51.336;12.612;2023-07-31T07:11:26;3.92;;;2.13;;
60060;SDS011;45933;51.336;12.612;2023-07-31T07:13:51;3.70;;;2.30;;
60060;SDS011;45933;51.336;12.612;2023-07-31T07:16:17;6.80;;;2.83;;
60060;SDS011;45933;51.336;12.612;2023-07-31T07:18:42;4.30;;;2.80;;
60060;SDS011;45933;51.336;12.612;2023-07-31T07:21:07;3.47;;;2.40;;
60060;SDS011;45933;51.336;12.612;2023-07-31T07:23:33;6.15;;;2.60;;
60060;SDS011;45933;51.336;12.612;2023-07-31T07:25:58;5.65;;;2.78;;
60060;SDS011;45933;51.336;12.612;2023-07-31T07:28:24;4.88;;;2.53;;
60060;SDS011;45933;51.336;12.612;2023-07-31T07:30:52;6.20;;;3.30;;
60060;SDS011;45933;51.336;12.612;2023-07-31T07:33:20;4.63;;;2.58;;
60060;SDS011;45933;51.336;12.612;2023-07-31T07:35:45;5.93;;;2.67;;
60060;SDS011;45933;51.336;12.612;2023-07-31T07:38:11;5.18;;;3.00;;
60060;SDS011;45933;51.336;12.612;2023-07-31T07:40:39;6.30;;;2.60;;
60060;SDS011;45933;51.336;12.612;2023-07-31T07:43:05;7.32;;;2.95;;
60060;SDS011;45933;51.336;12.612;2023-07-31T07:45:30;10.43;;;3.15;;
60060;SDS011;45933;51.336;12.612;2023-07-31T07:47:55;6.45;;;2.53;;
60060;SDS011;45933;51.336;12.612;2023-07-31T07:50:20;13.20;;;6.78;;
60060;SDS011;45933;51.336;12.612;2023-07-31T07:52:46;11.45;;;5.60;;
60060;SDS011;45933;51.336;12.612;2023-07-31T07:55:11;5.45;;;3.10;;
60060;SDS011;45933;51.336;12.612;2023-07-31T07:57:37;8.15;;;3.15;;
60060;SDS011;45933;51.336;12.612;2023-07-31T08:00:02;9.00;;;3.80;;
60060;SDS011;45933;51.336;12.612;2023-07-31T08:02:28;7.88;;;3.30;;
60060;SDS011;45933;51.336;12.612;2023-07-31T08:04:53;9.52;;;5.80;;
60060;SDS011;45933;51.336;12.612;2023-07-31T08:07:18;6.47;;;3.13;;
60060;SDS011;45933;51.336;12.612;2023-07-31T08:09:44;4.97;;;2.63;;
60060;SDS011;45933;51.336;12.612;2023-07-31T08:12:09;10.05;;;4.10;;
60060;SDS011;45933;51.336;12.612;2023-07-31T08:14:34;5.20;;;2.72;;
60060;SDS011;45933;51.336;12.612;2023-07-31T08:17:00;5.82;;;2.50;;
60060;SDS011;45933;51.336;12.612;2023-07-31T08:19:26;5.65;;;2.47;;
60060;SDS011;45933;51.336;12.612;2023-07-31T08:21:52;9.18;;;3.40;;
60060;SDS011;45933;51.336;12.612;2023-07-31T08:24:17;6.63;;;2.83;;
60060;SDS011;45933;51.336;12.612;2023-07-31T08:26:42;7.93;;;2.42;;
60060;SDS011;45933;51.336;12.612;2023-07-31T08:29:08;7.40;;;2.70;;
60060;SDS011;45933;51.336;12.612;2023-07-31T08:31:33;4.20;;;2.53;;
60060;SDS011;45933;51.336;12.612;2023-07-31T08:33:59;6.15;;;2.45;;
60060;SDS011;45933;51.336;12.612;2023-07-31T08:36:25;5.47;;;2.70;;
60060;SDS011;45933;51.336;12.612;2023-07-31T08:38:50;3.50;;;2.45;;
60060;SDS011;45933;51.336;12.612;2023-07-31T08:41:16;5.05;;;2.67;;
60060;SDS011;45933;51.336;12.612;2023-07-31T08:43:45;4.60;;;2.50;;
60060;SDS011;45933;51.336;12.612;2023-07-31T08:46:11;4.70;;;2.25;;
60060;SDS011;45933;51.336;12.612;2023-07-31T08:48:39;5.43;;;2.63;;
60060;SDS011;45933;51.336;12.612;2023-07-31T08:51:07;6.20;;;2.70;;
60060;SDS011;45933;51.336;12.612;2023-07-31T08:53:32;7.05;;;2.63;;
60060;SDS011;45933;51.336;12.612;2023-07-31T08:55:58;5.03;;;2.90;;
60060;SDS011;45933;51.336;12.612;2023-07-31T08:58:24;3.35;;;2.47;;
60060;SDS011;45933;51.336;12.612;2023-07-31T09:00:52;6.10;;;2.65;;
60060;SDS011;45933;51.336;12.612;2023-07-31T09:03:19;3.53;;;2.40;;
60060;SDS011;45933;51.336;12.612;2023-07-31T09:05:48;3.78;;;2.80;;
60060;SDS011;45933;51.336;12.612;2023-07-31T09:08:16;5.22;;;2.30;;
60060;SDS011;45933;51.336;12.612;2023-07-31T09:10:44;4.82;;;2.83;;
60060;SDS011;45933;51.336;12.612;2023-07-31T09:13:14;5.22;;;2.42;;
60060;SDS011;45933;51.336;12.612;2023-07-31T09:15:41;4.07;;;2.28;;
60060;SDS011;45933;51.336;12.612;2023-07-31T09:18:09;5.60;;;2.55;;
60060;SDS011;45933;51.336;12.612;2023-07-31T09:20:34;4.22;;;2.35;;
60060;SDS011;45933;51.336;12.612;2023-07-31T09:23:07;5.15;;;2.28;;
60060;SDS011;45933;51.336;12.612;2023-07-31T09:25:37;3.88;;;2.33;;
60060;SDS011;45933;51.336;12.612;2023-07-31T09:28:04;5.10;;;2.60;;
60060;SDS011;45933;51.336;12.612;2023-07-31T09:30:32;4.55;;;2.35;;
60060;SDS011;45933;51.336;12.612;2023-07-31T09:33:09;5.18;;;2.45;;
60060;SDS011;45933;51.336;12.612;2023-07-31T09:35:35;4.90;;;2.42;;
60060;SDS011;45933;51.336;12.612;2023-07-31T09:38:03;4.97;;;2.80;;
60060;SDS011;45933;51.336;12.612;2023-07-31T09:40:31;5.82;;;2.22;;
60060;SDS011;45933;51.336;12.612;2023-07-31T09:43:04;3.80;;;2.40;;
60060;SDS011;45933;51.336;12.612;2023-07-31T09:45:36;6.40;;;2.83;;
60060;SDS011;45933;51.336;12.612;2023-07-31T09:48:09;4.03;;;2.65;;
60060;SDS011;45933;51.336;12.612;2023-07-31T09:50:39;7.15;;;2.95;;
60060;SDS011;45933;51.336;12.612;2023-07-31T09:53:06;4.18;;;2.47;;
60060;SDS011;45933;51.336;12.612;2023-07-31T09:55:33;4.05;;;2.40;;
60060;SDS011;45933;51.336;12.612;2023-07-31T09:57:59;6.63;;;2.75;;
60060;SDS011;45933;51.336;12.612;2023-07-31T10:00:28;4.68;;;2.60;;
60060;SDS011;45933;51.336;12.612;2023-07-31T10:02:55;5.65;;;2.47;;
60060;SDS011;45933;51.336;12.612;2023-07-31T10:05:23;6.13;;;3.08;;
60060;SDS011;45933;51.336;12.612;2023-07-31T10:08:01;4.82;;;2.55;;
60060;SDS011;45933;51.336;12.612;2023-07-31T10:10:28;6.72;;;2.90;;
60060;SDS011;45933;51.336;12.612;2023-07-31T10:12:54;4.30;;;2.63;;
60060;SDS011;45933;51.336;12.612;2023-07-31T10:15:21;5.43;;;2.72;;
60060;SDS011;45933;51.336;12.612;2023-07-31T10:17:47;3.38;;;2.50;;
60060;SDS011;45933;51.336;12.612;2023-07-31T10:20:14;4.25;;;2.53;;
60060;SDS011;45933;51.336;12.612;2023-07-31T10:22:41;6.05;;;2.92;;
60060;SDS011;45933;51.336;12.612;2023-07-31T10:25:08;4.70;;;2.63;;
60060;SDS011;45933;51.336;12.612;2023-07-31T10:27:35;6.05;;;2.67;;
60060;SDS011;45933;51.336;12.612;2023-07-31T10:30:00;4.35;;;2.78;;
60060;SDS011;45933;51.336;12.612;2023-07-31T10:32:30;5.13;;;2.90;;
60060;SDS011;45933;51.336;12.612;2023-07-31T10:34:55;4.05;;;2.33;;
60060;SDS011;45933;51.336;12.612;2023-07-31T10:39:56;3.30;;;2.50;;
60060;SDS011;45933;51.336;12.612;2023-07-31T10:42:36;4.03;;;2.60;;
60060;SDS011;45933;51.336;12.612;2023-07-31T10:45:08;4.38;;;2.72;;
60060;SDS011;45933;51.336;12.612;2023-07-31T10:47:44;4.97;;;2.70;;
60060;SDS011;45933;51.336;12.612;2023-07-31T10:50:18;4.72;;;2.70;;
60060;SDS011;45933;51.336;12.612;2023-07-31T10:52:49;5.25;;;2.85;;
60060;SDS011;45933;51.336;12.612;2023-07-31T10:57:49;6.70;;;2.75;;
60060;SDS011;45933;51.336;12.612;2023-07-31T11:00:18;4.75;;;3.00;;
60060;SDS011;45933;51.336;12.612;2023-07-31T11:06:00;3.40;;;2.33;;
60060;SDS011;45933;51.336;12.612;2023-07-31T11:10:51;4.15;;;2.70;;
60060;SDS011;45933;51.336;12.612;2023-07-31T11:13:29;5.57;;;3.28;;
60060;SDS011;45933;51.336;12.612;2023-07-31T11:15:56;5.13;;;3.00;;
60060;SDS011;45933;51.336;12.612;2023-07-31T11:18:21;5.30;;;2.90;;
60060;SDS011;45933;51.336;12.612;2023-07-31T11:20:46;5.07;;;2.72;;
60060;SDS011;45933;51.336;12.612;2023-07-31T11:23:12;5.57;;;3.00;;
60060;SDS011;45933;51.336;12.612;2023-07-31T11:25:38;3.63;;;2.72;;
60060;SDS011;45933;51.336;12.612;2023-07-31T11:28:10;4.82;;;2.53;;
60060;SDS011;45933;51.336;12.612;2023-07-31T11:30:39;3.00;;;2.47;;
60060;SDS011;45933;51.336;12.612;2023-07-31T11:33:06;4.20;;;2.78;;
60060;SDS011;45933;51.336;12.612;2023-07-31T11:35:33;4.78;;;2.58;;
60060;SDS011;45933;51.336;12.612;2023-07-31T11:38:10;3.70;;;2.80;;
60060;SDS011;45933;51.336;12.612;2023-07-31T11:40:43;5.03;;;3.28;;
60060;SDS011;45933;51.336;12.612;2023-07-31T11:43:09;4.78;;;3.03;;
60060;SDS011;45933;51.336;12.612;2023-07-31T11:45:36;5.47;;;2.97;;
60060;SDS011;45933;51.336;12.612;2023-07-31T11:48:04;5.30;;;2.63;;
60060;SDS011;45933;51.336;12.612;2023-07-31T11:50:30;4.05;;;2.75;;
60060;SDS011;45933;51.336;12.612;2023-07-31T11:53:00;3.58;;;2.95;;
60060;SDS011;45933;51.336;12.612;2023-07-31T11:55:32;3.35;;;2.53;;
60060;SDS011;45933;51.336;12.612;2023-07-31T11:58:00;4.18;;;3.05;;
60060;SDS011;45933;51.336;12.612;2023-07-31T12:00:35;4.93;;;2.40;;
60060;SDS011;45933;51.336;12.612;2023-07-31T12:03:01;5.07;;;2.55;;
60060;SDS011;45933;51.336;12.612;2023-07-31T12:05:26;5.70;;;2.67;;
60060;SDS011;45933;51.336;12.612;2023-07-31T12:07:53;5.38;;;2.60;;
60060;SDS011;45933;51.336;12.612;2023-07-31T12:10:30;4.53;;;2.95;;
60060;SDS011;45933;51.336;12.612;2023-07-31T12:13:11;3.17;;;2.72;;
60060;SDS011;45933;51.336;12.612;2023-07-31T12:15:44;5.85;;;2.85;;
60060;SDS011;45933;51.336;12.612;2023-07-31T12:18:11;6.43;;;3.30;;
60060;SDS011;45933;51.336;12.612;2023-07-31T12:20:47;4.57;;;2.80;;
60060;SDS011;45933;51.336;12.612;2023-07-31T12:23:17;6.93;;;3.17;;
60060;SDS011;45933;51.336;12.612;2023-07-31T12:28:41;4.57;;;2.63;;
60060;SDS011;45933;51.336;12.612;2023-07-31T12:31:08;6.22;;;2.85;;
60060;SDS011;45933;51.336;12.612;2023-07-31T12:33:35;4.55;;;3.03;;
60060;SDS011;45933;51.336;12.612;2023-07-31T12:36:03;4.43;;;2.90;;
60060;SDS011;45933;51.336;12.612;2023-07-31T12:38:29;5.95;;;3.25;;
60060;SDS011;45933;51.336;12.612;2023-07-31T12:40:55;4.75;;;3.33;;
60060;SDS011;45933;51.336;12.612;2023-07-31T12:43:20;6.25;;;3.17;;
60060;SDS011;45933;51.336;12.612;2023-07-31T12:45:46;3.90;;;2.72;;
60060;SDS011;45933;51.336;12.612;2023-07-31T12:48:12;4.20;;;2.70;;
60060;SDS011;45933;51.336;12.612;2023-07-31T12:50:38;7.53;;;3.00;;
60060;SDS011;45933;51.336;12.612;2023-07-31T12:53:03;5.07;;;3.05;;
60060;SDS011;45933;51.336;12.612;2023-07-31T12:55:29;4.97;;;2.97;;
60060;SDS011;45933;51.336;12.612;2023-07-31T12:57:55;5.28;;;3.08;;
60060;SDS011;45933;51.336;12.612;2023-07-31T13:00:20;5.07;;;3.13;;
60060;SDS011;45933;51.336;12.612;2023-07-31T13:02:46;4.03;;;2.65;;
60060;SDS011;45933;51.336;12.612;2023-07-31T13:05:11;4.07;;;3.00;;
60060;SDS011;45933;51.336;12.612;2023-07-31T13:07:38;5.53;;;2.72;;
60060;SDS011;45933;51.336;12.612;2023-07-31T13:10:03;4.65;;;3.30;;
60060;SDS011;45933;51.336;12.612;2023-07-31T13:12:29;5.38;;;3.30;;
60060;SDS011;45933;51.336;12.612;2023-07-31T13:14:54;6.13;;;3.10;;
60060;SDS011;45933;51.336;12.612;2023-07-31T13:17:19;3.65;;;2.88;;
60060;SDS011;45933;51.336;12.612;2023-07-31T13:19:45;4.10;;;2.90;;
60060;SDS011;45933;51.336;12.612;2023-07-31T13:22:10;5.18;;;3.05;;
60060;SDS011;45933;51.336;12.612;2023-07-31T13:24:36;4.10;;;2.60;;
60060;SDS011;45933;51.336;12.612;2023-07-31T13:27:01;4.40;;;3.10;;
60060;SDS011;45933;51.336;12.612;2023-07-31T13:29:26;4.10;;;3.03;;
60060;SDS011;45933;51.336;12.612;2023-07-31T13:31:52;5.32;;;3.13;;
60060;SDS011;45933;51.336;12.612;2023-07-31T13:34:18;5.15;;;2.70;;
60060;SDS011;45933;51.336;12.612;2023-07-31T13:36:43;4.93;;;2.70;;
60060;SDS011;45933;51.336;12.612;2023-07-31T13:39:08;4.13;;;2.17;;
60060;SDS011;45933;51.336;12.612;2023-07-31T13:41:34;3.25;;;2.35;;
60060;SDS011;45933;51.336;12.612;2023-07-31T13:43:59;6.25;;;2.47;;
60060;SDS011;45933;51.336;12.612;2023-07-31T13:46:25;11.00;;;3.08;;
60060;SDS011;45933;51.336;12.612;2023-07-31T13:48:50;4.45;;;2.90;;
60060;SDS011;45933;51.336;12.612;2023-07-31T13:51:16;4.07;;;2.53;;
60060;SDS011;45933;51.336;12.612;2023-07-31T13:53:41;3.95;;;2.65;;
60060;SDS011;45933;51.336;12.612;2023-07-31T13:56:07;6.88;;;2.25;;
60060;SDS011;45933;51.336;12.612;2023-07-31T13:58:33;3.83;;;2.47;;
60060;SDS011;45933;51.336;12.612;2023-07-31T14:00:58;2.78;;;2.10;;
60060;SDS011;45933;51.336;12.612;2023-07-31T14:03:23;2.55;;;2.17;;
60060;SDS011;45933;51.336;12.612;2023-07-31T14:05:49;6.35;;;3.20;;
60060;SDS011;45933;51.336;12.612;2023-07-31T14:08:15;4.47;;;2.45;;
60060;SDS011;45933;51.336;12.612;2023-07-31T14:10:40;4.03;;;2.60;;
60060;SDS011;45933;51.336;12.612;2023-07-31T14:13:05;3.60;;;2.50;;
60060;SDS011;45933;51.336;12.612;2023-07-31T14:15:30;4.43;;;2.65;;
60060;SDS011;45933;51.336;12.612;2023-07-31T14:17:57;4.07;;;2.15;;
60060;SDS011;45933;51.336;12.612;2023-07-31T14:20:22;4.18;;;2.35;;
60060;SDS011;45933;51.336;12.612;2023-07-31T14:22:48;3.78;;;2.50;;
60060;SDS011;45933;51.336;12.612;2023-07-31T14:25:13;3.90;;;2.55;;
60060;SDS011;45933;51.336;12.612;2023-07-31T14:27:38;2.80;;;2.35;;
60060;SDS011;45933;51.336;12.612;2023-07-31T14:30:04;4.03;;;2.72;;
60060;SDS011;45933;51.336;12.612;2023-07-31T14:32:29;5.00;;;2.30;;
60060;SDS011;45933;51.336;12.612;2023-07-31T14:34:55;2.88;;;2.33;;
60060;SDS011;45933;51.336;12.612;2023-07-31T14:37:20;3.15;;;2.40;;
60060;SDS011;45933;51.336;12.612;2023-07-31T14:39:45;3.45;;;2.28;;
60060;SDS011;45933;51.336;12.612;2023-07-31T14:42:11;3.88;;;2.50;;
60060;SDS011;45933;51.336;12.612;2023-07-31T14:44:36;4.35;;;2.63;;
60060;SDS011;45933;51.336;12.612;2023-07-31T14:47:02;3.42;;;2.17;;